| time (UTC) | temp C | wind direction | speed KPH | gust KPH | rain 1hr cm | rain 24hr cm | rain mn cm | humidity % | barometer mb |
| 20260906125936 | 19 | 28 | 3.2 | 14.5 | 0.00 | 0.00 | 0.00 | 86 | 1015.8 |
| 20260906125927 | 18 | 32 | 4.8 | 16.1 | 0.00 | 0.00 | 0.00 | 86 | 1015.8 |
| 20260906124924 | 18 | 22 | 6.4 | 16.1 | 0.00 | 0.00 | 0.00 | 87 | 1015.8 |
| 20260906124424 | 18 | 338 | 4.8 | 16.1 | 0.00 | 0.00 | 0.00 | 88 | 1015.8 |
| 20260906123925 | 18 | 40 | 1.6 | 12.9 | 0.00 | 0.00 | 0.00 | 89 | 1015.8 |
| 20260906123414 | 17 | 255 | 3.2 | 16.1 | 0.00 | 0.00 | 0.00 | 90 | 1015.7 |
| 20260906122914 | 17 | 22 | 3.2 | 16.1 | 0.00 | 0.00 | 0.00 | 90 | 1015.6 |
| 20260906122415 | 17 | 355 | 4.8 | 16.1 | 0.00 | 0.00 | 0.00 | 91 | 1015.5 |
| 20260906121913 | 17 | 33 | 4.8 | 16.1 | 0.00 | 0.00 | 0.00 | 91 | 1015.5 |
| 20260906121417 | 17 | 11 | 3.2 | 11.3 | 0.00 | 0.00 | 0.00 | 92 | 1015.4 |
| 20260906121412 | 17 | 0 | 4.8 | 12.9 | 0.00 | 0.00 | 0.00 | 91 | 1015.4 |
| 20260906120411 | 16 | 35 | 3.2 | 8.0 | 0.00 | 0.00 | 0.00 | 92 | 1015.3 |
| 20260906115900 | 16 | 34 | 3.2 | 11.3 | 0.00 | 0.00 | 0.00 | 92 | 1015.3 |
| 20260906115400 | 16 | 26 | 3.2 | 11.3 | 0.00 | 0.00 | 0.00 | 92 | 1015.2 |
| 20260906114905 | 16 | 69 | 3.2 | 8.0 | 0.00 | 0.00 | 0.00 | 92 | 1015.1 |
| 20260906114901 | 16 | 351 | 3.2 | 8.0 | 0.00 | 0.00 | 0.00 | 92 | 1015.2 |
| 20260906113859 | 16 | 40 | 1.6 | 8.0 | 0.00 | 0.00 | 0.00 | 92 | 1015.1 |
| 20260906113358 | 16 | 46 | 1.6 | 6.4 | 0.00 | 0.00 | 0.00 | 92 | 1015.0 |
| 20260906112859 | 16 | 14 | 1.6 | 6.4 | 0.00 | 0.00 | 0.00 | 92 | 1015.1 |
| 20260906112359 | 16 | 19 | 0.0 | 4.8 | 0.00 | 0.00 | 0.00 | 92 | 1015.1 |
| 20260906111859 | 16 | 45 | 0.0 | 1.6 | 0.00 | 0.00 | 0.00 | 91 | 1014.9 |
| 20260906111401 | 16 | 45 | 0.0 | 0.0 | 0.00 | 0.00 | 0.00 | 91 | 1015.0 |
| 20260906111356 | 16 | 45 | 0.0 | 0.0 | 0.00 | 0.00 | 0.00 | 91 | 1015.0 |
| 20260906110348 | 16 | 45 | 0.0 | 0.0 | 0.00 | 0.00 | 0.00 | 91 | 1015.0 |
| 20260906105848 | 16 | 45 | 0.0 | 0.0 | 0.00 | 0.00 | 0.00 | 91 | 1014.8 |
| 20260906105348 | 16 | 45 | 0.0 | 0.0 | 0.00 | 0.00 | 0.00 | 91 | 1014.7 |
| 20260906104848 | 16 | 45 | 0.0 | 0.0 | 0.00 | 0.00 | 0.00 | 91 | 1014.7 |
| 20260906104346 | 16 | 45 | 0.0 | 0.0 | 0.00 | 0.00 | 0.00 | 91 | 1014.6 |
| 20260906103845 | 16 | 45 | 0.0 | 0.0 | 0.00 | 0.00 | 0.00 | 91 | 1014.5 |
| 20260906103345 | 16 | 45 | 0.0 | 0.0 | 0.00 | 0.00 | 0.00 | 91 | 1014.5 |
| 20260906102844 | 16 | 45 | 0.0 | 0.0 | 0.00 | 0.00 | 0.00 | 91 | 1014.4 |
| 20260906102345 | 16 | 45 | 0.0 | 0.0 | 0.00 | 0.00 | 0.00 | 91 | 1014.3 |
| 20260906102337 | 16 | 45 | 0.0 | 0.0 | 0.00 | 0.00 | 0.00 | 91 | 1014.2 |
| 20260906101948 | 16 | 45 | 0.0 | 0.0 | 0.00 | 0.00 | 0.00 | 90 | 1014.1 |
| 20260906100835 | 16 | 45 | 0.0 | 1.6 | 0.00 | 0.00 | 0.00 | 91 | 1014.1 |
| 20260906100331 | 16 | 45 | 0.0 | 1.6 | 0.00 | 0.00 | 0.00 | 90 | 1014.1 |
| 20260906095833 | 16 | 45 | 0.0 | 1.6 | 0.00 | 0.00 | 0.00 | 90 | 1014.0 |
| 20260906095334 | 16 | 45 | 0.0 | 1.6 | 0.00 | 0.00 | 0.00 | 90 | 1014.0 |
| 20260906094829 | 16 | 45 | 0.0 | 1.6 | 0.00 | 0.00 | 0.00 | 90 | 1013.8 |
| 20260906094328 | 16 | 45 | 0.0 | 1.6 | 0.00 | 0.00 | 0.00 | 90 | 1013.8 |
| 20260906093825 | 16 | 45 | 0.0 | 1.6 | 0.00 | 0.00 | 0.00 | 90 | 1013.9 |
| 20260906093325 | 16 | 45 | 0.0 | 3.2 | 0.00 | 0.00 | 0.00 | 90 | 1013.9 |
| 20260906092829 | 16 | 45 | 0.0 | 3.2 | 0.00 | 0.00 | 0.00 | 90 | 1013.8 |
| 20260906092825 | 16 | 45 | 0.0 | 3.2 | 0.00 | 0.00 | 0.00 | 90 | 1013.8 |
| 20260906091818 | 16 | 45 | 0.0 | 3.2 | 0.00 | 0.00 | 0.00 | 90 | 1013.7 |
| 20260906091318 | 16 | 45 | 0.0 | 1.6 | 0.00 | 0.00 | 0.00 | 90 | 1013.7 |
| 20260906090816 | 16 | 45 | 0.0 | 1.6 | 0.00 | 0.00 | 0.00 | 90 | 1013.7 |
| 20260906090315 | 16 | 45 | 0.0 | 0.0 | 0.00 | 0.00 | 0.00 | 89 | 1013.6 |
| 20260906085805 | 16 | 45 | 0.0 | 0.0 | 0.00 | 0.00 | 0.00 | 89 | 1013.5 |
| 20260906085306 | 16 | 45 | 0.0 | 0.0 | 0.00 | 0.00 | 0.00 | 89 | 1013.5 |
| 20260906084806 | 16 | 45 | 0.0 | 0.0 | 0.00 | 0.00 | 0.00 | 89 | 1013.4 |
| 20260906084308 | 17 | 45 | 0.0 | 0.0 | 0.00 | 0.00 | 0.00 | 89 | 1013.4 |
| 20260906083805 | 17 | 45 | 0.0 | 0.0 | 0.00 | 0.00 | 0.00 | 89 | 1013.5 |
| 20260906083308 | 17 | 45 | 0.0 | 1.6 | 0.00 | 0.00 | 0.00 | 89 | 1013.5 |
| 20260906083303 | 17 | 45 | 0.0 | 1.6 | 0.00 | 0.00 | 0.00 | 89 | 1013.4 |
| 20260906082308 | 17 | 45 | 0.0 | 1.6 | 0.00 | 0.00 | 0.00 | 89 | 1013.5 |
| 20260906082305 | 17 | 45 | 0.0 | 1.6 | 0.00 | 0.00 | 0.00 | 89 | 1013.4 |
| 20260906081300 | 17 | 45 | 0.0 | 1.6 | 0.00 | 0.00 | 0.00 | 89 | 1013.5 |
| 20260906080748 | 17 | 45 | 0.0 | 1.6 | 0.00 | 0.00 | 0.00 | 89 | 1013.5 |
| 20260906080248 | 17 | 45 | 0.0 | 0.0 | 0.00 | 0.00 | 0.00 | 89 | 1013.4 |
| 20260906075737 | 17 | 45 | 0.0 | 0.0 | 0.00 | 0.00 | 0.00 | 90 | 1013.3 |
| 20260906075239 | 17 | 45 | 0.0 | 0.0 | 0.00 | 0.00 | 0.00 | 90 | 1013.3 |
| 20260906074737 | 17 | 45 | 0.0 | 0.0 | 0.00 | 0.00 | 0.00 | 90 | 1013.3 |
| 20260906074730 | 17 | 45 | 0.0 | 0.0 | 0.00 | 0.00 | 0.00 | 90 | 1013.3 |
| 20260906073726 | 17 | 45 | 0.0 | 0.0 | 0.00 | 0.00 | 0.00 | 90 | 1013.1 |
| 20260906073221 | 17 | 45 | 0.0 | 0.0 | 0.00 | 0.00 | 0.00 | 90 | 1013.1 |
| 20260906072720 | 17 | 45 | 0.0 | 0.0 | 0.00 | 0.00 | 0.00 | 90 | 1013.2 |
| 20260906072219 | 17 | 45 | 0.0 | 0.0 | 0.00 | 0.00 | 0.00 | 90 | 1013.1 |
| 20260906071717 | 17 | 45 | 0.0 | 0.0 | 0.00 | 0.00 | 0.00 | 90 | 1013.1 |
| 20260906071217 | 17 | 45 | 0.0 | 0.0 | 0.00 | 0.00 | 0.00 | 90 | 1013.1 |
| 20260906070718 | 18 | 45 | 0.0 | 0.0 | 0.00 | 0.00 | 0.00 | 90 | 1013.2 |
| 20260906070218 | 18 | 45 | 0.0 | 3.2 | 0.00 | 0.00 | 0.00 | 90 | 1013.2 |
| 20260906065714 | 17 | 45 | 0.0 | 3.2 | 0.00 | 0.00 | 0.00 | 89 | 1013.2 |
| 20260906065215 | 17 | 45 | 0.0 | 3.2 | 0.00 | 0.00 | 0.00 | 89 | 1013.1 |
| 20260906064714 | 17 | 45 | 0.0 | 3.2 | 0.00 | 0.00 | 0.00 | 89 | 1013.1 |
| 20260906064210 | 17 | 151 | 0.0 | 1.6 | 0.00 | 0.00 | 0.00 | 89 | 1013.1 |
| 20260906063712 | 17 | 151 | 0.0 | 1.6 | 0.00 | 0.00 | 0.00 | 89 | 1013.0 |
| 20260906063210 | 18 | 151 | 0.0 | 1.6 | 0.00 | 0.00 | 0.00 | 89 | 1013.1 |
| 20260906062710 | 18 | 151 | 0.0 | 1.6 | 0.00 | 0.00 | 0.00 | 89 | 1013.1 |
| 20260906062213 | 18 | 151 | 0.0 | 1.6 | 0.00 | 0.00 | 0.00 | 89 | 1013.2 |
| 20260906061710 | 18 | 151 | 0.0 | 1.6 | 0.00 | 0.00 | 0.00 | 89 | 1013.1 |
| 20260906061210 | 18 | 151 | 0.0 | 0.0 | 0.00 | 0.00 | 0.00 | 89 | 1013.2 |
| 20260906060709 | 18 | 151 | 0.0 | 0.0 | 0.00 | 0.00 | 0.00 | 89 | 1013.1 |
| 20260906060207 | 18 | 151 | 0.0 | 1.6 | 0.00 | 0.00 | 0.00 | 89 | 1013.1 |
| 20260906055705 | 18 | 151 | 0.0 | 1.6 | 0.00 | 0.00 | 0.00 | 89 | 1013.1 |
| 20260906055207 | 18 | 151 | 0.0 | 1.6 | 0.00 | 0.00 | 0.00 | 89 | 1013.1 |
| 20260906054706 | 18 | 151 | 0.0 | 1.6 | 0.00 | 0.00 | 0.00 | 89 | 1013.2 |
| 20260906054201 | 18 | 151 | 0.0 | 1.6 | 0.00 | 0.00 | 0.00 | 89 | 1013.2 |
| 20260906053706 | 18 | 151 | 0.0 | 0.0 | 0.00 | 0.00 | 0.00 | 89 | 1013.1 |
| 20260906053701 | 18 | 151 | 0.0 | 1.6 | 0.00 | 0.00 | 0.00 | 89 | 1013.1 |
| 20260906052654 | 18 | 151 | 0.0 | 0.0 | 0.00 | 0.00 | 0.00 | 89 | 1013.1 |
| 20260906052154 | 18 | 151 | 0.0 | 0.0 | 0.00 | 0.00 | 0.00 | 89 | 1013.2 |
| 20260906051654 | 18 | 151 | 0.0 | 0.0 | 0.00 | 0.00 | 0.00 | 88 | 1013.3 |
| 20260906051650 | 18 | 151 | 0.0 | 0.0 | 0.00 | 0.00 | 0.00 | 89 | 1013.2 |
| 20260906050649 | 18 | 151 | 0.0 | 0.0 | 0.00 | 0.00 | 0.00 | 88 | 1013.3 |
| 20260906050151 | 19 | 151 | 0.0 | 0.0 | 0.00 | 0.00 | 0.00 | 88 | 1013.3 |
| 20260906045647 | 19 | 151 | 0.0 | 0.0 | 0.00 | 0.00 | 0.00 | 88 | 1013.2 |
| 20260906045148 | 19 | 151 | 0.0 | 0.0 | 0.00 | 0.00 | 0.00 | 88 | 1013.4 |
| 20260906044646 | 19 | 151 | 0.0 | 0.0 | 0.00 | 0.00 | 0.00 | 87 | 1013.4 |
| 20260906044143 | 19 | 151 | 0.0 | 0.0 | 0.00 | 0.00 | 0.00 | 88 | 1013.5 |
| 20260906043648 | 19 | 151 | 0.0 | 0.0 | 0.00 | 0.00 | 0.00 | 87 | 1013.6 |
| 20260906043643 | 19 | 151 | 0.0 | 0.0 | 0.00 | 0.00 | 0.00 | 87 | 1013.6 |
| 20260906042647 | 19 | 151 | 0.0 | 0.0 | 0.00 | 0.00 | 0.00 | 87 | 1013.7 |
| 20260906042642 | 20 | 151 | 0.0 | 0.0 | 0.00 | 0.00 | 0.00 | 87 | 1013.7 |
| 20260906041637 | 20 | 151 | 0.0 | 0.0 | 0.00 | 0.00 | 0.00 | 87 | 1013.6 |
| 20260906041136 | 20 | 151 | 0.0 | 0.0 | 0.00 | 0.00 | 0.00 | 86 | 1013.5 |
| 20260906040635 | 20 | 151 | 0.0 | 0.0 | 0.00 | 0.00 | 0.00 | 86 | 1013.5 |
| 20260906040136 | 20 | 151 | 0.0 | 0.0 | 0.00 | 0.00 | 0.00 | 86 | 1013.5 |
| 20260906035636 | 20 | 151 | 0.0 | 0.0 | 0.00 | 0.00 | 0.00 | 86 | 1013.5 |
| 20260906035127 | 20 | 151 | 0.0 | 0.0 | 0.00 | 0.00 | 0.00 | 85 | 1013.5 |
| 20260906034625 | 20 | 151 | 0.0 | 0.0 | 0.00 | 0.00 | 0.00 | 85 | 1013.5 |
| 20260906034130 | 20 | 151 | 0.0 | 0.0 | 0.00 | 0.00 | 0.00 | 85 | 1013.6 |
| 20260906034125 | 20 | 151 | 0.0 | 0.0 | 0.00 | 0.00 | 0.00 | 85 | 1013.6 |
| 20260906033128 | 20 | 151 | 0.0 | 0.0 | 0.00 | 0.00 | 0.00 | 84 | 1013.6 |
| 20260906032627 | 21 | 151 | 0.0 | 0.0 | 0.00 | 0.00 | 0.00 | 84 | 1013.7 |
| 20260906032622 | 20 | 151 | 0.0 | 0.0 | 0.00 | 0.00 | 0.00 | 84 | 1013.7 |
| 20260906031613 | 21 | 151 | 0.0 | 0.0 | 0.00 | 0.00 | 0.00 | 84 | 1013.6 |
| 20260906031116 | 21 | 151 | 0.0 | 0.0 | 0.00 | 0.00 | 0.00 | 83 | 1013.5 |
| 20260906031110 | 21 | 151 | 0.0 | 0.0 | 0.00 | 0.00 | 0.00 | 84 | 1013.7 |
| 20260906030110 | 21 | 151 | 0.0 | 0.0 | 0.00 | 0.00 | 0.00 | 82 | 1013.4 |
| 20260906025612 | 21 | 151 | 0.0 | 0.0 | 0.00 | 0.00 | 0.00 | 82 | 1013.3 |
| 20260906025108 | 21 | 151 | 0.0 | 0.0 | 0.00 | 0.00 | 0.00 | 82 | 1013.3 |
| 20260906024608 | 21 | 151 | 0.0 | 0.0 | 0.00 | 0.00 | 0.00 | 82 | 1013.3 |
| 20260906024109 | 21 | 151 | 0.0 | 0.0 | 0.00 | 0.00 | 0.00 | 82 | 1013.3 |
| 20260906023613 | 21 | 151 | 0.0 | 0.0 | 0.00 | 0.00 | 0.00 | 82 | 1013.3 |
| 20260906023607 | 21 | 151 | 0.0 | 0.0 | 0.00 | 0.00 | 0.00 | 82 | 1013.4 |
| 20260906022606 | 21 | 151 | 0.0 | 0.0 | 0.00 | 0.00 | 0.00 | 82 | 1013.2 |
| 20260906022108 | 21 | 151 | 0.0 | 0.0 | 0.00 | 0.00 | 0.00 | 81 | 1013.3 |
| 20260906022103 | 21 | 151 | 0.0 | 0.0 | 0.00 | 0.00 | 0.00 | 81 | 1013.2 |
| 20260906021057 | 21 | 151 | 0.0 | 0.0 | 0.00 | 0.00 | 0.00 | 81 | 1013.1 |
| 20260906020545 | 21 | 151 | 0.0 | 0.0 | 0.00 | 0.00 | 0.00 | 80 | 1013.2 |
| 20260906020049 | 22 | 151 | 0.0 | 1.6 | 0.00 | 0.00 | 0.00 | 81 | 1013.2 |
| 20260906020045 | 21 | 151 | 0.0 | 1.6 | 0.00 | 0.00 | 0.00 | 80 | 1013.2 |
| 20260906015702 | 22 | 151 | 0.0 | 3.2 | 0.00 | 0.00 | 0.00 | 81 | 1013.1 |
| 20260906014542 | 22 | 151 | 0.0 | 3.2 | 0.00 | 0.00 | 0.00 | 82 | 1013.1 |
| 20260906014043 | 22 | 151 | 0.0 | 4.8 | 0.00 | 0.00 | 0.00 | 82 | 1013.0 |
| 20260906013543 | 22 | 151 | 0.0 | 4.8 | 0.00 | 0.00 | 0.00 | 81 | 1013.0 |
| 20260906013039 | 22 | 151 | 0.0 | 6.4 | 0.00 | 0.00 | 0.00 | 82 | 1013.0 |
| 20260906012541 | 22 | 111 | 0.0 | 3.2 | 0.00 | 0.00 | 0.00 | 81 | 1012.6 |
| 20260906012536 | 22 | 162 | 0.0 | 6.4 | 0.00 | 0.00 | 0.00 | 81 | 1012.8 |
| 20260906011525 | 22 | 111 | 0.0 | 3.2 | 0.00 | 0.00 | 0.00 | 82 | 1012.6 |
| 20260906011025 | 22 | 133 | 0.0 | 3.2 | 0.00 | 0.00 | 0.00 | 82 | 1012.6 |
| 20260906010531 | 22 | 22 | 0.0 | 3.2 | 0.00 | 0.00 | 0.00 | 83 | 1012.4 |
| 20260906010526 | 22 | 132 | 0.0 | 3.2 | 0.00 | 0.00 | 0.00 | 82 | 1012.5 |
| 20260906005523 | 22 | 22 | 0.0 | 3.2 | 0.00 | 0.00 | 0.00 | 83 | 1012.3 |
| 20260906005026 | 22 | 22 | 0.0 | 1.6 | 0.00 | 0.00 | 0.00 | 85 | 1012.4 |
| 20260906005022 | 22 | 22 | 0.0 | 1.6 | 0.00 | 0.00 | 0.00 | 84 | 1012.3 |
| 20260906004023 | 22 | 22 | 0.0 | 0.0 | 0.00 | 0.00 | 0.00 | 84 | 1012.3 |
| 20260906004019 | 22 | 22 | 0.0 | 1.6 | 0.00 | 0.00 | 0.00 | 84 | 1012.3 |
| 20260906003018 | 22 | 22 | 0.0 | 0.0 | 0.00 | 0.00 | 0.00 | 84 | 1012.2 |
| 20260906003011 | 22 | 22 | 0.0 | 0.0 | 0.00 | 0.00 | 0.00 | 83 | 1012.1 |
| 20260906002009 | 22 | 22 | 0.0 | 0.0 | 0.00 | 0.00 | 0.00 | 83 | 1012.2 |
| 20260906001511 | 22 | 22 | 0.0 | 0.0 | 0.00 | 0.00 | 0.00 | 83 | 1012.2 |
| 20260906001013 | 22 | 22 | 0.0 | 0.0 | 0.00 | 0.00 | 0.00 | 82 | 1012.0 |
| 20260906001008 | 22 | 22 | 0.0 | 0.0 | 0.00 | 0.00 | 0.00 | 83 | 1012.1 |
| 20260906000003 | 22 | 22 | 0.0 | 1.6 | 0.00 | 0.00 | 0.00 | 82 | 1012.0 |
| 20260905235500 | 22 | 22 | 0.0 | 1.6 | 0.00 | 0.00 | 0.00 | 81 | 1012.0 |
| 20260905235002 | 22 | 22 | 0.0 | 1.6 | 0.00 | 0.00 | 0.00 | 81 | 1011.9 |
| 20260905234456 | 23 | 22 | 0.0 | 1.6 | 0.00 | 0.00 | 0.00 | 80 | 1012.0 |
| 20260905233955 | 23 | 22 | 0.0 | 1.6 | 0.00 | 0.00 | 0.00 | 79 | 1011.8 |
| 20260905233455 | 23 | 22 | 0.0 | 4.8 | 0.00 | 0.00 | 0.00 | 79 | 1011.7 |
| 20260905232956 | 23 | 22 | 0.0 | 4.8 | 0.00 | 0.00 | 0.00 | 81 | 1011.7 |
| 20260905232951 | 23 | 22 | 1.6 | 4.8 | 0.00 | 0.00 | 0.00 | 81 | 1011.7 |
| 20260905231949 | 24 | 22 | 1.6 | 4.8 | 0.00 | 0.00 | 0.00 | 76 | 1011.6 |
| 20260905231449 | 24 | 11 | 1.6 | 4.8 | 0.00 | 0.00 | 0.00 | 74 | 1011.6 |
| 20260905230948 | 24 | 341 | 0.0 | 4.8 | 0.00 | 0.00 | 0.00 | 76 | 1011.5 |
| 20260905230445 | 25 | 57 | 0.0 | 8.0 | 0.00 | 0.00 | 0.00 | 76 | 1011.6 |
| 20260905225948 | 25 | 57 | 0.0 | 8.0 | 0.00 | 0.00 | 0.00 | 74 | 1011.5 |
| 20260905225944 | 25 | 176 | 1.6 | 8.0 | 0.00 | 0.00 | 0.00 | 74 | 1011.5 |
| 20260905224945 | 25 | 70 | 1.6 | 9.7 | 0.00 | 0.00 | 0.00 | 74 | 1011.5 |
| 20260905224444 | 25 | 10 | 1.6 | 12.9 | 0.00 | 0.00 | 0.00 | 73 | 1011.4 |
| 20260905223943 | 25 | 36 | 0.0 | 12.9 | 0.00 | 0.00 | 0.00 | 74 | 1011.4 |
| 20260905223443 | 25 | 78 | 1.6 | 12.9 | 0.00 | 0.00 | 0.00 | 73 | 1011.4 |
| 20260905222942 | 26 | 76 | 3.2 | 12.9 | 0.00 | 0.00 | 0.00 | 75 | 1011.4 |
| 20260905222440 | 25 | 46 | 1.6 | 11.3 | 0.00 | 0.00 | 0.00 | 72 | 1011.4 |
| 20260905221936 | 25 | 304 | 1.6 | 6.4 | 0.00 | 0.00 | 0.00 | 73 | 1011.3 |
| 20260905221438 | 26 | 48 | 1.6 | 9.7 | 0.00 | 0.00 | 0.00 | 70 | 1011.3 |
| 20260905220936 | 26 | 28 | 3.2 | 9.7 | 0.00 | 0.00 | 0.00 | 70 | 1011.2 |
| 20260905220432 | 26 | 34 | 3.2 | 11.3 | 0.00 | 0.00 | 0.00 | 69 | 1011.2 |
| 20260905215927 | 26 | 117 | 3.2 | 11.3 | 0.00 | 0.00 | 0.00 | 69 | 1011.2 |
| 20260905215432 | 26 | 69 | 3.2 | 11.3 | 0.00 | 0.00 | 0.00 | 71 | 1011.2 |
| 20260905215426 | 26 | 61 | 3.2 | 11.3 | 0.00 | 0.00 | 0.00 | 70 | 1011.2 |
| 20260905214425 | 26 | 179 | 1.6 | 8.0 | 0.00 | 0.00 | 0.00 | 71 | 1011.1 |
| 20260905213923 | 25 | 190 | 1.6 | 8.0 | 0.00 | 0.00 | 0.00 | 73 | 1011.0 |
| 20260905213421 | 25 | 59 | 1.6 | 8.0 | 0.00 | 0.00 | 0.00 | 73 | 1010.9 |
| 20260905212923 | 25 | 158 | 1.6 | 8.0 | 0.00 | 0.00 | 0.00 | 74 | 1010.8 |
| 20260905212422 | 26 | 158 | 3.2 | 12.9 | 0.00 | 0.03 | 0.00 | 71 | 1010.8 |
| 20260905211920 | 26 | 237 | 3.2 | 12.9 | 0.00 | 0.03 | 0.00 | 75 | 1010.7 |
| 20260905211421 | 26 | 194 | 4.8 | 12.9 | 0.00 | 0.03 | 0.00 | 73 | 1010.7 |
| 20260905210919 | 26 | 220 | 3.2 | 12.9 | 0.00 | 0.03 | 0.00 | 70 | 1010.5 |
| 20260905210413 | 26 | 346 | 1.6 | 12.9 | 0.00 | 0.03 | 0.00 | 72 | 1010.5 |
| 20260905210029 | 26 | 23 | 3.2 | 11.3 | 0.00 | 0.03 | 0.00 | 73 | 1010.6 |
| 20260905205919 | 26 | 111 | 3.2 | 9.7 | 0.00 | 0.03 | 0.00 | 76 | 1010.7 |
| 20260905205914 | 25 | 190 | 1.6 | 9.7 | 0.00 | 0.03 | 0.00 | 77 | 1010.6 |
| 20260905204413 | 26 | 14 | 3.2 | 11.3 | 0.00 | 0.03 | 0.00 | 71 | 1010.7 |
| 20260905203858 | 26 | 77 | 1.6 | 8.0 | 0.00 | 0.03 | 0.00 | 74 | 1010.8 |
| 20260905203400 | 25 | 68 | 3.2 | 8.0 | 0.00 | 0.03 | 0.00 | 76 | 1010.8 |
| 20260905203356 | 25 | 115 | 1.6 | 8.0 | 0.00 | 0.03 | 0.00 | 77 | 1010.7 |
| 20260905202356 | 26 | 51 | 3.2 | 12.9 | 0.00 | 0.03 | 0.00 | 72 | 1010.8 |
| 20260905202351 | 26 | 26 | 3.2 | 8.0 | 0.00 | 0.03 | 0.00 | 72 | 1010.9 |
| 20260905201955 | 25 | 49 | 4.8 | 12.9 | 0.00 | 0.03 | 0.00 | 73 | 1010.9 |
| 20260905200844 | 26 | 5 | 3.2 | 8.0 | 0.00 | 0.03 | 0.00 | 73 | 1011.0 |
| 20260905200349 | 25 | 40 | 3.2 | 16.1 | 0.00 | 0.03 | 0.00 | 73 | 1011.0 |
| 20260905200344 | 25 | 24 | 1.6 | 16.1 | 0.00 | 0.03 | 0.00 | 74 | 1011.0 |
| 20260905195342 | 26 | 59 | 4.8 | 16.1 | 0.00 | 0.03 | 0.00 | 71 | 1011.1 |
| 20260905194845 | 26 | 328 | 3.2 | 8.0 | 0.00 | 0.03 | 0.00 | 75 | 1011.1 |
| 20260905194841 | 26 | 19 | 3.2 | 16.1 | 0.00 | 0.03 | 0.00 | 74 | 1011.2 |
| 20260905193841 | 26 | 310 | 4.8 | 17.7 | 0.00 | 0.03 | 0.00 | 71 | 1011.1 |
| 20260905193331 | 26 | 22 | 4.8 | 17.7 | 0.00 | 0.03 | 0.00 | 72 | 1011.1 |
| 20260905192830 | 26 | 15 | 4.8 | 17.7 | 0.00 | 0.03 | 0.00 | 71 | 1011.2 |
| 20260905192330 | 26 | 355 | 4.8 | 17.7 | 0.00 | 0.03 | 0.00 | 73 | 1011.2 |
| 20260905191836 | 26 | 22 | 6.4 | 17.7 | 0.00 | 0.03 | 0.00 | 73 | 1011.3 |
| 20260905191831 | 26 | 41 | 6.4 | 17.7 | 0.00 | 0.03 | 0.00 | 73 | 1011.2 |
| 20260905190831 | 25 | 17 | 3.2 | 17.7 | 0.00 | 0.03 | 0.00 | 75 | 1011.2 |
| 20260905190329 | 25 | 25 | 3.2 | 9.7 | 0.00 | 0.03 | 0.00 | 75 | 1011.2 |
| 20260905185830 | 25 | 36 | 1.6 | 9.7 | 0.00 | 0.03 | 0.00 | 77 | 1011.3 |
| 20260905185321 | 25 | 112 | 1.6 | 9.7 | 0.00 | 0.03 | 0.00 | 77 | 1011.3 |
| 20260905184820 | 25 | 42 | 1.6 | 11.3 | 0.00 | 0.03 | 0.00 | 76 | 1011.5 |
| 20260905184321 | 25 | 18 | 1.6 | 11.3 | 0.00 | 0.03 | 0.00 | 77 | 1011.5 |
| 20260905183814 | 25 | 115 | 1.6 | 6.4 | 0.00 | 0.03 | 0.00 | 80 | 1011.6 |
| 20260905183314 | 25 | 5 | 1.6 | 8.0 | 0.00 | 0.03 | 0.00 | 79 | 1011.6 |
| 20260905182812 | 25 | 30 | 1.6 | 8.0 | 0.00 | 0.03 | 0.00 | 79 | 1011.7 |
| 20260905182808 | 25 | 30 | 1.6 | 8.0 | 0.00 | 0.03 | 0.00 | 76 | 1011.7 |
| 20260905181808 | 25 | 30 | 3.2 | 8.0 | 0.00 | 0.03 | 0.00 | 76 | 1011.7 |
| 20260905181309 | 25 | 188 | 1.6 | 8.0 | 0.00 | 0.03 | 0.00 | 78 | 1011.7 |
| 20260905180801 | 25 | 117 | 1.6 | 8.0 | 0.00 | 0.03 | 0.00 | 77 | 1011.8 |
| 20260905180756 | 25 | 17 | 1.6 | 8.0 | 0.00 | 0.03 | 0.00 | 81 | 1011.9 |
| 20260905180400 | 25 | 52 | 1.6 | 8.0 | 0.00 | 0.03 | 0.00 | 76 | 1011.8 |
| 20260905175255 | 25 | 17 | 1.6 | 8.0 | 0.00 | 0.03 | 0.00 | 82 | 1011.9 |
| 20260905174754 | 25 | 259 | 3.2 | 8.0 | 0.00 | 0.03 | 0.00 | 79 | 1012.1 |
| 20260905174253 | 25 | 284 | 3.2 | 8.0 | 0.00 | 0.03 | 0.00 | 76 | 1012.2 |
| 20260905173752 | 25 | 67 | 3.2 | 8.0 | 0.00 | 0.03 | 0.00 | 81 | 1012.2 |
| 20260905173245 | 25 | 15 | 1.6 | 8.0 | 0.00 | 0.03 | 0.00 | 77 | 1012.3 |
| 20260905172751 | 25 | 22 | 3.2 | 8.0 | 0.00 | 0.03 | 0.00 | 77 | 1012.4 |
| 20260905172747 | 25 | 22 | 1.6 | 8.0 | 0.00 | 0.03 | 0.00 | 79 | 1012.3 |
| 20260905171744 | 25 | 75 | 1.6 | 8.0 | 0.00 | 0.03 | 0.00 | 79 | 1012.4 |
| 20260905171740 | 25 | 41 | 3.2 | 8.0 | 0.00 | 0.03 | 0.00 | 77 | 1012.4 |
| 20260905170740 | 26 | 46 | 3.2 | 8.0 | 0.00 | 0.03 | 0.00 | 75 | 1012.5 |
| 20260905170229 | 25 | 34 | 3.2 | 11.3 | 0.00 | 0.03 | 0.00 | 75 | 1012.5 |
| 20260905165727 | 25 | 44 | 3.2 | 11.3 | 0.00 | 0.03 | 0.00 | 75 | 1012.4 |
| 20260905165227 | 25 | 5 | 4.8 | 14.5 | 0.00 | 0.03 | 0.00 | 76 | 1012.4 |
| 20260905164727 | 25 | 304 | 4.8 | 14.5 | 0.00 | 0.03 | 0.00 | 75 | 1012.5 |
| 20260905164227 | 25 | 24 | 4.8 | 12.9 | 0.00 | 0.03 | 0.00 | 76 | 1012.5 |
| 20260905163724 | 25 | 334 | 4.8 | 12.9 | 0.00 | 0.03 | 0.00 | 75 | 1012.5 |
| 20260905163224 | 25 | 33 | 3.2 | 9.7 | 0.00 | 0.03 | 0.00 | 76 | 1012.5 |
| 20260905162724 | 25 | 269 | 3.2 | 11.3 | 0.00 | 0.03 | 0.00 | 76 | 1012.5 |
| 20260905162221 | 25 | 306 | 3.2 | 11.3 | 0.00 | 0.03 | 0.00 | 76 | 1012.6 |
| 20260905161725 | 26 | 355 | 4.8 | 11.3 | 0.00 | 0.03 | 0.00 | 76 | 1012.8 |
| 20260905161721 | 25 | 302 | 3.2 | 11.3 | 0.00 | 0.03 | 0.00 | 75 | 1012.8 |
| 20260905160721 | 25 | 5 | 3.2 | 9.7 | 0.00 | 0.03 | 0.00 | 76 | 1012.9 |
| 20260905160221 | 26 | 63 | 3.2 | 9.7 | 0.00 | 0.03 | 0.00 | 76 | 1013.0 |
| 20260905155718 | 26 | 17 | 4.8 | 11.3 | 0.00 | 0.03 | 0.00 | 76 | 1012.9 |
| 20260905155208 | 26 | 106 | 3.2 | 11.3 | 0.00 | 0.03 | 0.00 | 75 | 1013.0 |
| 20260905154707 | 26 | 294 | 3.2 | 11.3 | 0.00 | 0.03 | 0.00 | 77 | 1013.0 |
| 20260905154207 | 25 | 5 | 4.8 | 11.3 | 0.00 | 0.03 | 0.00 | 76 | 1013.0 |
| 20260905153706 | 25 | 27 | 4.8 | 12.9 | 0.00 | 0.03 | 0.00 | 78 | 1013.0 |
| 20260905153208 | 25 | 54 | 4.8 | 12.9 | 0.00 | 0.03 | 0.00 | 78 | 1013.0 |
| 20260905152707 | 25 | 297 | 3.2 | 8.0 | 0.00 | 0.03 | 0.00 | 79 | 1013.2 |
| 20260905152207 | 25 | 49 | 1.6 | 8.0 | 0.00 | 0.03 | 0.00 | 79 | 1013.3 |
| 20260905151706 | 25 | 336 | 1.6 | 8.0 | 0.00 | 0.03 | 0.00 | 78 | 1013.5 |
| 20260905151206 | 25 | 27 | 1.6 | 6.4 | 0.00 | 0.03 | 0.00 | 80 | 1013.5 |
| 20260905151202 | 25 | 27 | 3.2 | 6.4 | 0.00 | 0.03 | 0.00 | 80 | 1013.5 |
| 20260905150153 | 24 | 327 | 1.6 | 8.0 | 0.00 | 0.03 | 0.00 | 81 | 1013.4 |
| 20260905145651 | 24 | 13 | 1.6 | 8.0 | 0.00 | 0.03 | 0.00 | 80 | 1013.4 |
| 20260905145152 | 25 | 50 | 3.2 | 9.7 | 0.00 | 0.03 | 0.00 | 79 | 1013.3 |
| 20260905144649 | 25 | 313 | 3.2 | 9.7 | 0.00 | 0.03 | 0.00 | 78 | 1013.3 |
| 20260905144148 | 25 | 333 | 3.2 | 9.7 | 0.00 | 0.03 | 0.00 | 78 | 1013.3 |
| 20260905143647 | 25 | 26 | 3.2 | 11.3 | 0.00 | 0.03 | 0.00 | 78 | 1013.2 |
| 20260905143147 | 25 | 301 | 1.6 | 11.3 | 0.00 | 0.03 | 0.00 | 79 | 1013.2 |
| 20260905142652 | 25 | 36 | 3.2 | 9.7 | 0.00 | 0.03 | 0.00 | 79 | 1013.0 |
| 20260905142648 | 25 | 221 | 3.2 | 9.7 | 0.00 | 0.03 | 0.00 | 81 | 1013.1 |
| 20260905141648 | 25 | 39 | 1.6 | 12.9 | 0.00 | 0.03 | 0.00 | 80 | 1012.9 |
| 20260905141146 | 24 | 355 | 1.6 | 12.9 | 0.00 | 0.03 | 0.00 | 80 | 1012.6 |
| 20260905140644 | 24 | 26 | 3.2 | 8.0 | 0.00 | 0.03 | 0.00 | 82 | 1012.6 |
| 20260905140142 | 23 | 26 | 3.2 | 8.0 | 0.00 | 0.03 | 0.00 | 82 | 1012.5 |
| 20260905135644 | 23 | 18 | 1.6 | 8.0 | 0.00 | 0.03 | 0.00 | 82 | 1012.4 |
| 20260905135142 | 23 | 84 | 1.6 | 8.0 | 0.00 | 0.03 | 0.00 | 83 | 1012.4 |
| 20260905134641 | 23 | 5 | 1.6 | 8.0 | 0.00 | 0.03 | 0.00 | 85 | 1012.5 |
| 20260905134141 | 23 | 297 | 1.6 | 8.0 | 0.00 | 0.03 | 0.00 | 83 | 1012.6 |
| 20260905133638 | 23 | 38 | 1.6 | 9.7 | 0.00 | 0.03 | 0.00 | 83 | 1012.8 |
| 20260905133127 | 23 | 355 | 1.6 | 16.1 | 0.00 | 0.03 | 0.00 | 84 | 1012.8 |
| 20260905132627 | 23 | 86 | 1.6 | 16.1 | 0.00 | 0.03 | 0.00 | 86 | 1012.6 |
| 20260905132126 | 23 | 86 | 4.8 | 16.1 | 0.00 | 0.03 | 0.00 | 83 | 1012.8 |
| 20260905131624 | 23 | 9 | 4.8 | 16.1 | 0.00 | 0.03 | 0.00 | 83 | 1012.9 |
| 20260905131124 | 23 | 69 | 3.2 | 9.7 | 0.00 | 0.03 | 0.00 | 84 | 1012.8 |
| 20260905130625 | 23 | 24 | 4.8 | 11.3 | 0.00 | 0.03 | 0.00 | 88 | 1012.6 |
| 20260905130617 | 23 | 28 | 4.8 | 11.3 | 0.00 | 0.03 | 0.00 | 86 | 1012.5 |